sensor_id;sensor_type;location;lat;lon;timestamp;pressure;altitude;pressure_sealevel;temperature;humidity
69187;BME280;56301;56.864;60.554;2024-02-16T00:00:42;101086.56;;;26.33;19.66
69187;BME280;56301;56.864;60.554;2024-02-16T00:03:05;101086.66;;;26.32;20.56
69187;BME280;56301;56.864;60.554;2024-02-16T00:05:27;101080.13;;;26.34;20.06
69187;BME280;56301;56.864;60.554;2024-02-16T00:07:50;101069.09;;;26.36;21.06
69187;BME280;56301;56.864;60.554;2024-02-16T00:10:12;101073.56;;;26.37;19.70
69187;BME280;56301;56.864;60.554;2024-02-16T00:12:35;101071.81;;;26.36;20.09
69187;BME280;56301;56.864;60.554;2024-02-16T00:15:00;101067.66;;;26.32;19.65
69187;BME280;56301;56.864;60.554;2024-02-16T00:17:23;101080.84;;;26.36;19.52
69187;BME280;56301;56.864;60.554;2024-02-16T00:19:46;101072.81;;;26.35;20.44
69187;BME280;56301;56.864;60.554;2024-02-16T00:22:08;101073.84;;;26.34;20.76
69187;BME280;56301;56.864;60.554;2024-02-16T00:24:31;101062.72;;;26.37;20.46
69187;BME280;56301;56.864;60.554;2024-02-16T00:26:53;101062.97;;;26.34;20.72
69187;BME280;56301;56.864;60.554;2024-02-16T00:29:16;101052.66;;;26.28;20.45
69187;BME280;56301;56.864;60.554;2024-02-16T00:31:38;101068.53;;;26.32;21.07
69187;BME280;56301;56.864;60.554;2024-02-16T00:34:00;101075.69;;;26.33;21.00
69187;BME280;56301;56.864;60.554;2024-02-16T00:36:23;101073.56;;;26.37;20.27
69187;BME280;56301;56.864;60.554;2024-02-16T00:38:46;101078.84;;;26.38;19.31
69187;BME280;56301;56.864;60.554;2024-02-16T00:41:08;101077.84;;;26.39;20.10
69187;BME280;56301;56.864;60.554;2024-02-16T00:43:38;101079.84;;;26.37;19.72
69187;BME280;56301;56.864;60.554;2024-02-16T00:46:01;101080.69;;;26.38;19.04
69187;BME280;56301;56.864;60.554;2024-02-16T00:48:23;101078.25;;;26.35;20.47
69187;BME280;56301;56.864;60.554;2024-02-16T00:50:46;101075.53;;;26.35;19.55
69187;BME280;56301;56.864;60.554;2024-02-16T00:53:08;101079.53;;;26.31;20.69
69187;BME280;56301;56.864;60.554;2024-02-16T00:55:31;101084.97;;;26.31;19.34
69187;BME280;56301;56.864;60.554;2024-02-16T00:57:53;101080.53;;;26.30;20.54
69187;BME280;56301;56.864;60.554;2024-02-16T01:00:16;101087.69;;;26.31;20.39
69187;BME280;56301;56.864;60.554;2024-02-16T01:02:38;101080.66;;;26.28;21.07
69187;BME280;56301;56.864;60.554;2024-02-16T01:05:01;101083.38;;;26.28;20.06
69187;BME280;56301;56.864;60.554;2024-02-16T01:07:23;101080.53;;;26.30;19.49
69187;BME280;56301;56.864;60.554;2024-02-16T01:09:46;101083.25;;;26.30;20.24
69187;BME280;56301;56.864;60.554;2024-02-16T01:12:08;101083.25;;;26.30;19.88
69187;BME280;56301;56.864;60.554;2024-02-16T01:14:31;101076.09;;;26.29;19.75
69187;BME280;56301;56.864;60.554;2024-02-16T01:16:53;101084.53;;;26.35;19.65
69187;BME280;56301;56.864;60.554;2024-02-16T01:19:16;101092.09;;;26.32;20.14
69187;BME280;56301;56.864;60.554;2024-02-16T01:21:38;101091.13;;;26.33;19.66
69187;BME280;56301;56.864;60.554;2024-02-16T01:24:01;101080.66;;;26.59;19.68
69187;BME280;56301;56.864;60.554;2024-02-16T01:26:23;101086.22;;;26.67;19.29
69187;BME280;56301;56.864;60.554;2024-02-16T01:28:46;101089.25;;;26.74;19.31
69187;BME280;56301;56.864;60.554;2024-02-16T01:31:09;101082.53;;;26.78;18.67
69187;BME280;56301;56.864;60.554;2024-02-16T01:33:31;101080.38;;;26.81;18.84
69187;BME280;56301;56.864;60.554;2024-02-16T01:35:54;101013.63;;;26.79;19.20
69187;BME280;56301;56.864;60.554;2024-02-16T01:38:16;101097.13;;;26.77;19.25
69187;BME280;56301;56.864;60.554;2024-02-16T01:40:39;101096.53;;;26.73;18.87
69187;BME280;56301;56.864;60.554;2024-02-16T01:43:02;101095.09;;;26.69;18.88
69187;BME280;56301;56.864;60.554;2024-02-16T01:45:24;101106.25;;;26.76;17.91
69187;BME280;56301;56.864;60.554;2024-02-16T01:47:50;101108.38;;;26.72;17.96
69187;BME280;56301;56.864;60.554;2024-02-16T01:50:14;101109.81;;;26.67;18.47
69187;BME280;56301;56.864;60.554;2024-02-16T01:52:37;101112.53;;;26.67;18.07
69187;BME280;56301;56.864;60.554;2024-02-16T01:54:59;101113.06;;;26.60;18.42
69187;BME280;56301;56.864;60.554;2024-02-16T01:57:22;101108.34;;;26.53;18.15
69187;BME280;56301;56.864;60.554;2024-02-16T01:59:44;101102.59;;;26.46;18.73
69187;BME280;56301;56.864;60.554;2024-02-16T02:02:07;101107.84;;;26.38;18.83
69187;BME280;56301;56.864;60.554;2024-02-16T02:04:29;101111.84;;;26.34;18.29
69187;BME280;56301;56.864;60.554;2024-02-16T02:06:52;101115.81;;;26.30;18.39
69187;BME280;56301;56.864;60.554;2024-02-16T02:09:14;101121.53;;;26.27;17.52
69187;BME280;56301;56.864;60.554;2024-02-16T02:11:37;101113.66;;;26.24;18.43
69187;BME280;56301;56.864;60.554;2024-02-16T02:13:59;101119.75;;;26.16;18.00
69187;BME280;56301;56.864;60.554;2024-02-16T02:16:22;101123.75;;;26.12;18.13
69187;BME280;56301;56.864;60.554;2024-02-16T02:18:45;101132.31;;;26.07;18.26
69187;BME280;56301;56.864;60.554;2024-02-16T02:21:08;101132.31;;;26.07;19.12
69187;BME280;56301;56.864;60.554;2024-02-16T02:23:30;101131.03;;;26.11;18.30
69187;BME280;56301;56.864;60.554;2024-02-16T02:25:53;101123.06;;;26.20;18.98
69187;BME280;56301;56.864;60.554;2024-02-16T02:28:15;101125.00;;;26.38;18.64
69187;BME280;56301;56.864;60.554;2024-02-16T02:30:38;101125.06;;;26.48;18.46
69187;BME280;56301;56.864;60.554;2024-02-16T02:33:00;101133.69;;;26.63;17.84
69187;BME280;56301;56.864;60.554;2024-02-16T02:35:23;101131.69;;;26.75;18.80
69187;BME280;56301;56.864;60.554;2024-02-16T02:37:45;101135.13;;;26.86;17.80
69187;BME280;56301;56.864;60.554;2024-02-16T02:40:08;101140.31;;;26.99;17.35
69187;BME280;56301;56.864;60.554;2024-02-16T02:42:30;101130.44;;;27.08;17.48
69187;BME280;56301;56.864;60.554;2024-02-16T02:44:53;101133.78;;;27.11;18.49
69187;BME280;56301;56.864;60.554;2024-02-16T02:47:16;101129.06;;;27.14;18.40
69187;BME280;56301;56.864;60.554;2024-02-16T02:49:38;101137.47;;;27.10;17.84
69187;BME280;56301;56.864;60.554;2024-02-16T02:52:01;101139.75;;;27.05;18.01
69187;BME280;56301;56.864;60.554;2024-02-16T02:54:23;101134.03;;;26.99;18.73
69187;BME280;56301;56.864;60.554;2024-02-16T02:56:46;101132.72;;;26.93;18.85
69187;BME280;56301;56.864;60.554;2024-02-16T02:59:09;101129.44;;;26.89;17.85
69187;BME280;56301;56.864;60.554;2024-02-16T03:01:31;101134.88;;;26.80;18.08
69187;BME280;56301;56.864;60.554;2024-02-16T03:03:54;101147.28;;;26.73;18.60
69187;BME280;56301;56.864;60.554;2024-02-16T03:06:20;101149.81;;;26.64;18.81
69187;BME280;56301;56.864;60.554;2024-02-16T03:08:42;101144.66;;;26.61;17.89
69187;BME280;56301;56.864;60.554;2024-02-16T03:11:05;101160.50;;;26.56;18.33
69187;BME280;56301;56.864;60.554;2024-02-16T03:13:27;101161.06;;;26.50;18.21
69187;BME280;56301;56.864;60.554;2024-02-16T03:15:50;101166.88;;;26.46;19.17
69187;BME280;56301;56.864;60.554;2024-02-16T03:18:12;101168.84;;;26.34;18.65
69187;BME280;56301;56.864;60.554;2024-02-16T03:20:35;101163.25;;;26.05;19.09
69187;BME280;56301;56.864;60.554;2024-02-16T03:22:57;101168.19;;;25.90;18.64
69187;BME280;56301;56.864;60.554;2024-02-16T03:25:20;101172.66;;;25.80;19.28
69187;BME280;56301;56.864;60.554;2024-02-16T03:27:42;101173.97;;;25.64;19.92
69187;BME280;56301;56.864;60.554;2024-02-16T03:30:05;101175.59;;;25.56;19.70
69187;BME280;56301;56.864;60.554;2024-02-16T03:32:27;101178.97;;;25.48;19.94
69187;BME280;56301;56.864;60.554;2024-02-16T03:34:50;101178.00;;;25.38;20.51
69187;BME280;56301;56.864;60.554;2024-02-16T03:37:12;101188.34;;;25.44;20.71
69187;BME280;56301;56.864;60.554;2024-02-16T03:39:35;101182.16;;;25.53;21.16
69187;BME280;56301;56.864;60.554;2024-02-16T03:41:57;101193.41;;;25.69;20.28
69187;BME280;56301;56.864;60.554;2024-02-16T03:44:19;101189.94;;;25.79;20.23
69187;BME280;56301;56.864;60.554;2024-02-16T03:46:42;101196.41;;;25.87;20.33
69187;BME280;56301;56.864;60.554;2024-02-16T03:49:05;101201.34;;;26.03;20.48
69187;BME280;56301;56.864;60.554;2024-02-16T03:51:27;101199.47;;;26.15;20.46
69187;BME280;56301;56.864;60.554;2024-02-16T03:53:50;101201.50;;;26.23;20.06
69187;BME280;56301;56.864;60.554;2024-02-16T03:56:17;101204.66;;;26.28;20.15
69187;BME280;56301;56.864;60.554;2024-02-16T03:58:40;101206.94;;;26.32;20.27
69187;BME280;56301;56.864;60.554;2024-02-16T04:01:03;101212.69;;;26.39;19.48
69187;BME280;56301;56.864;60.554;2024-02-16T04:03:25;101223.81;;;26.36;19.90
69187;BME280;56301;56.864;60.554;2024-02-16T04:05:48;101222.19;;;26.45;19.17
69187;BME280;56301;56.864;60.554;2024-02-16T04:08:10;101224.88;;;26.45;19.32
69187;BME280;56301;56.864;60.554;2024-02-16T04:10:33;101229.47;;;26.44;19.35
69187;BME280;56301;56.864;60.554;2024-02-16T04:12:56;101222.38;;;26.32;19.73
69187;BME280;56301;56.864;60.554;2024-02-16T04:15:19;101228.81;;;26.31;19.56
69187;BME280;56301;56.864;60.554;2024-02-16T04:17:41;101239.22;;;26.26;19.38
69187;BME280;56301;56.864;60.554;2024-02-16T04:20:04;101235.31;;;26.19;19.68
69187;BME280;56301;56.864;60.554;2024-02-16T04:22:26;101242.97;;;26.13;19.04
69187;BME280;56301;56.864;60.554;2024-02-16T04:24:49;101237.81;;;26.10;19.75
69187;BME280;56301;56.864;60.554;2024-02-16T04:27:12;101241.09;;;26.04;19.70
69187;BME280;56301;56.864;60.554;2024-02-16T04:29:34;101242.19;;;26.02;20.42
69187;BME280;56301;56.864;60.554;2024-02-16T04:31:57;101250.75;;;25.97;19.52
69187;BME280;56301;56.864;60.554;2024-02-16T04:34:19;101242.59;;;25.97;20.26
69187;BME280;56301;56.864;60.554;2024-02-16T04:36:42;101247.03;;;25.98;19.71
69187;BME280;56301;56.864;60.554;2024-02-16T04:39:04;101255.16;;;25.98;20.15
69187;BME280;56301;56.864;60.554;2024-02-16T04:41:27;101255.44;;;25.95;19.53
69187;BME280;56301;56.864;60.554;2024-02-16T04:43:49;101264.56;;;25.94;19.57
69187;BME280;56301;56.864;60.554;2024-02-16T04:46:15;101265.09;;;25.88;19.70
69187;BME280;56301;56.864;60.554;2024-02-16T04:48:38;101265.69;;;25.91;19.33
69187;BME280;56301;56.864;60.554;2024-02-16T04:51:00;101265.56;;;25.93;19.81
69187;BME280;56301;56.864;60.554;2024-02-16T04:53:23;101265.56;;;25.93;19.78
69187;BME280;56301;56.864;60.554;2024-02-16T04:55:45;101262.09;;;25.91;19.96
69187;BME280;56301;56.864;60.554;2024-02-16T04:58:08;101269.25;;;25.92;19.78
69187;BME280;56301;56.864;60.554;2024-02-16T05:00:30;101264.97;;;25.89;20.03
69187;BME280;56301;56.864;60.554;2024-02-16T05:02:53;101266.03;;;25.98;19.05
69187;BME280;56301;56.864;60.554;2024-02-16T05:05:15;101261.59;;;25.97;19.38
69187;BME280;56301;56.864;60.554;2024-02-16T05:07:38;101265.56;;;25.93;18.91
69187;BME280;56301;56.864;60.554;2024-02-16T05:10:00;101257.28;;;25.95;19.00
69187;BME280;56301;56.864;60.554;2024-02-16T05:12:24;101270.09;;;25.92;19.54
69187;BME280;56301;56.864;60.554;2024-02-16T05:14:49;101259.25;;;25.92;19.16
69187;BME280;56301;56.864;60.554;2024-02-16T05:17:12;101262.09;;;25.91;19.02
69187;BME280;56301;56.864;60.554;2024-02-16T05:19:34;101271.97;;;25.92;19.00
69187;BME280;56301;56.864;60.554;2024-02-16T05:21:57;101266.53;;;25.92;19.41
69187;BME280;56301;56.864;60.554;2024-02-16T05:24:19;101268.13;;;25.95;19.24
69187;BME280;56301;56.864;60.554;2024-02-16T05:26:42;101270.84;;;25.95;19.44
69187;BME280;56301;56.864;60.554;2024-02-16T05:29:04;101268.47;;;26.01;18.82
69187;BME280;56301;56.864;60.554;2024-02-16T05:31:27;101267.72;;;25.99;18.60
69187;BME280;56301;56.864;60.554;2024-02-16T05:33:49;101274.91;;;26.00;18.86
69187;BME280;56301;56.864;60.554;2024-02-16T05:36:12;101281.03;;;26.02;19.08
69187;BME280;56301;56.864;60.554;2024-02-16T05:38:34;101278.94;;;26.06;18.62
69187;BME280;56301;56.864;60.554;2024-02-16T05:40:57;101278.31;;;26.02;19.12
69187;BME280;56301;56.864;60.554;2024-02-16T05:43:20;101277.06;;;26.06;18.66
69187;BME280;56301;56.864;60.554;2024-02-16T05:45:42;101280.53;;;26.08;19.75
69187;BME280;56301;56.864;60.554;2024-02-16T05:48:04;101282.25;;;26.09;18.55
69187;BME280;56301;56.864;60.554;2024-02-16T05:50:27;101282.50;;;26.06;19.00
69187;BME280;56301;56.864;60.554;2024-02-16T05:52:49;101267.72;;;25.99;19.21
69187;BME280;56301;56.864;60.554;2024-02-16T05:55:12;101281.91;;;26.03;18.50
69187;BME280;56301;56.864;60.554;2024-02-16T05:57:35;101271.25;;;25.90;18.55
69187;BME280;56301;56.864;60.554;2024-02-16T05:59:57;101283.31;;;25.97;19.48
69187;BME280;56301;56.864;60.554;2024-02-16T06:02:20;101288.56;;;25.99;18.52
69187;BME280;56301;56.864;60.554;2024-02-16T06:04:42;101277.72;;;25.99;18.89
69187;BME280;56301;56.864;60.554;2024-02-16T06:07:05;101274.75;;;26.02;18.90
69187;BME280;56301;56.864;60.554;2024-02-16T06:09:27;101285.22;;;26.06;18.52
69187;BME280;56301;56.864;60.554;2024-02-16T06:11:50;101277.31;;;26.03;18.22
69187;BME280;56301;56.864;60.554;2024-02-16T06:14:12;101286.22;;;26.05;18.74
69187;BME280;56301;56.864;60.554;2024-02-16T06:16:34;101291.78;;;26.04;18.37
69187;BME280;56301;56.864;60.554;2024-02-16T06:18:57;101293.34;;;26.06;18.45
69187;BME280;56301;56.864;60.554;2024-02-16T06:21:19;101296.28;;;26.14;18.44
69187;BME280;56301;56.864;60.554;2024-02-16T06:23:42;101302.44;;;26.16;19.29
69187;BME280;56301;56.864;60.554;2024-02-16T06:26:06;101299.13;;;26.13;18.12
69187;BME280;56301;56.864;60.554;2024-02-16T06:28:29;101291.81;;;26.13;18.42
69187;BME280;56301;56.864;60.554;2024-02-16T06:30:51;101296.53;;;26.11;18.93
69187;BME280;56301;56.864;60.554;2024-02-16T06:33:13;101303.81;;;26.11;19.03
69187;BME280;56301;56.864;60.554;2024-02-16T06:35:36;101302.16;;;26.20;19.25
69187;BME280;56301;56.864;60.554;2024-02-16T06:37:58;101297.44;;;26.22;19.12
69187;BME280;56301;56.864;60.554;2024-02-16T06:40:21;101300.50;;;26.28;19.01
69187;BME280;56301;56.864;60.554;2024-02-16T06:42:43;101299.53;;;26.29;18.14
69187;BME280;56301;56.864;60.554;2024-02-16T06:45:06;101295.47;;;26.45;17.75
69187;BME280;56301;56.864;60.554;2024-02-16T06:47:28;101294.31;;;26.58;18.13
69187;BME280;56301;56.864;60.554;2024-02-16T06:49:51;101296.06;;;26.69;17.94
69187;BME280;56301;56.864;60.554;2024-02-16T06:52:14;101293.38;;;26.79;17.87
69187;BME280;56301;56.864;60.554;2024-02-16T06:54:37;101288.53;;;26.82;17.44
69187;BME280;56301;56.864;60.554;2024-02-16T06:56:59;101294.72;;;26.94;18.39
69187;BME280;56301;56.864;60.554;2024-02-16T06:59:22;101298.81;;;27.09;17.18
69187;BME280;56301;56.864;60.554;2024-02-16T07:01:44;101301.75;;;27.27;17.98
69187;BME280;56301;56.864;60.554;2024-02-16T07:04:07;101296.75;;;27.32;17.94
69187;BME280;56301;56.864;60.554;2024-02-16T07:06:30;101295.78;;;27.43;16.82
69187;BME280;56301;56.864;60.554;2024-02-16T07:08:52;101303.22;;;27.51;17.29
69187;BME280;56301;56.864;60.554;2024-02-16T07:11:14;101293.34;;;27.59;16.77
69187;BME280;56301;56.864;60.554;2024-02-16T07:13:37;101295.56;;;27.75;17.06
69187;BME280;56301;56.864;60.554;2024-02-16T07:16:00;101284.41;;;27.78;17.13
69187;BME280;56301;56.864;60.554;2024-02-16T07:18:22;101284.66;;;27.95;16.37
69187;BME280;56301;56.864;60.554;2024-02-16T07:20:45;101285.69;;;28.03;16.12
69187;BME280;56301;56.864;60.554;2024-02-16T07:23:07;101287.81;;;28.10;16.85
69187;BME280;56301;56.864;60.554;2024-02-16T07:25:30;101289.09;;;28.15;16.74
69187;BME280;56301;56.864;60.554;2024-02-16T07:27:52;101287.53;;;28.13;15.95
69187;BME280;56301;56.864;60.554;2024-02-16T07:30:15;101278.66;;;28.11;17.02
69187;BME280;56301;56.864;60.554;2024-02-16T07:32:37;101286.81;;;28.01;16.64
69187;BME280;56301;56.864;60.554;2024-02-16T07:35:00;101283.53;;;27.97;17.12
69187;BME280;56301;56.864;60.554;2024-02-16T07:37:22;101289.53;;;28.01;16.60
69187;BME280;56301;56.864;60.554;2024-02-16T07:39:45;101280.38;;;27.92;17.37
69187;BME280;56301;56.864;60.554;2024-02-16T07:42:07;101282.09;;;27.83;16.54
69187;BME280;56301;56.864;60.554;2024-02-16T07:44:30;101286.25;;;27.78;16.70
69187;BME280;56301;56.864;60.554;2024-02-16T07:46:52;101283.66;;;27.76;17.24
69187;BME280;56301;56.864;60.554;2024-02-16T07:49:15;101281.81;;;27.77;16.98
69187;BME280;56301;56.864;60.554;2024-02-16T07:51:37;101277.22;;;27.77;16.79
69187;BME280;56301;56.864;60.554;2024-02-16T07:54:00;101270.91;;;27.77;16.63
69187;BME280;56301;56.864;60.554;2024-02-16T07:56:22;101268.19;;;27.77;16.67
69187;BME280;56301;56.864;60.554;2024-02-16T07:58:44;101270.91;;;27.77;16.54
69187;BME280;56301;56.864;60.554;2024-02-16T08:01:07;101275.66;;;27.75;17.03
69187;BME280;56301;56.864;60.554;2024-02-16T08:03:29;101274.66;;;27.76;17.02
69187;BME280;56301;56.864;60.554;2024-02-16T08:05:52;101275.06;;;27.81;16.91
69187;BME280;56301;56.864;60.554;2024-02-16T08:08:14;101282.66;;;27.87;16.68
69187;BME280;56301;56.864;60.554;2024-02-16T08:10:37;101278.66;;;27.91;17.00
69187;BME280;56301;56.864;60.554;2024-02-16T08:12:59;101274.91;;;27.92;17.01
69187;BME280;56301;56.864;60.554;2024-02-16T08:15:22;101276.78;;;28.01;17.36
69187;BME280;56301;56.864;60.554;2024-02-16T08:17:44;101274.91;;;28.02;16.94
69187;BME280;56301;56.864;60.554;2024-02-16T08:20:07;101273.50;;;28.07;16.79
69187;BME280;56301;56.864;60.554;2024-02-16T08:22:29;101278.66;;;28.11;17.33
69187;BME280;56301;56.864;60.554;2024-02-16T08:24:52;101281.38;;;28.11;17.19
69187;BME280;56301;56.864;60.554;2024-02-16T08:27:14;101283.78;;;28.14;17.12
69187;BME280;56301;56.864;60.554;2024-02-16T08:29:37;101272.59;;;28.17;17.33
69187;BME280;56301;56.864;60.554;2024-02-16T08:31:59;101274.63;;;28.15;17.55
69187;BME280;56301;56.864;60.554;2024-02-16T08:34:22;101272.03;;;28.23;16.92
69187;BME280;56301;56.864;60.554;2024-02-16T08:36:44;101274.75;;;28.23;17.41
69187;BME280;56301;56.864;60.554;2024-02-16T08:39:07;101266.31;;;28.26;17.14
69187;BME280;56301;56.864;60.554;2024-02-16T08:41:29;101270.00;;;28.25;17.20
69187;BME280;56301;56.864;60.554;2024-02-16T08:43:52;101263.13;;;28.30;16.95
69187;BME280;56301;56.864;60.554;2024-02-16T08:46:14;101259.84;;;28.27;17.15
69187;BME280;56301;56.864;60.554;2024-02-16T08:48:37;101258.81;;;28.28;16.89
69187;BME280;56301;56.864;60.554;2024-02-16T08:50:59;101262.84;;;28.24;17.50
69187;BME280;56301;56.864;60.554;2024-02-16T08:53:22;101253.84;;;28.14;17.49
69187;BME280;56301;56.864;60.554;2024-02-16T08:55:44;101268.59;;;28.21;17.68
69187;BME280;56301;56.864;60.554;2024-02-16T08:58:07;101257.72;;;28.11;17.59
69187;BME280;56301;56.864;60.554;2024-02-16T09:00:30;101264.44;;;28.17;17.40
69187;BME280;56301;56.864;60.554;2024-02-16T09:02:52;101264.44;;;28.17;16.76
69187;BME280;56301;56.864;60.554;2024-02-16T09:05:15;101259.28;;;28.14;17.40
69187;BME280;56301;56.864;60.554;2024-02-16T09:07:37;101260.28;;;28.13;17.12
69187;BME280;56301;56.864;60.554;2024-02-16T09:10:00;101257.41;;;28.14;16.96
69187;BME280;56301;56.864;60.554;2024-02-16T09:12:22;101254.56;;;28.16;17.48
69187;BME280;56301;56.864;60.554;2024-02-16T09:14:45;101265.16;;;28.19;17.23
69187;BME280;56301;56.864;60.554;2024-02-16T09:17:08;101264.31;;;28.18;16.97
69187;BME280;56301;56.864;60.554;2024-02-16T09:19:30;101263.59;;;28.16;17.54
69187;BME280;56301;56.864;60.554;2024-02-16T09:21:53;101267.75;;;28.11;17.02
69187;BME280;56301;56.864;60.554;2024-02-16T09:24:15;101270.63;;;28.09;17.32
69187;BME280;56301;56.864;60.554;2024-02-16T09:26:37;101272.47;;;28.08;17.93
69187;BME280;56301;56.864;60.554;2024-02-16T09:29:00;101274.34;;;28.08;17.20
69187;BME280;56301;56.864;60.554;2024-02-16T09:31:22;101283.66;;;28.05;17.59
69187;BME280;56301;56.864;60.554;2024-02-16T09:33:45;101280.94;;;27.96;18.27
69187;BME280;56301;56.864;60.554;2024-02-16T09:36:07;101286.94;;;27.99;17.23
69187;BME280;56301;56.864;60.554;2024-02-16T09:38:30;101289.97;;;27.96;17.61
69187;BME280;56301;56.864;60.554;2024-02-16T09:40:53;101283.25;;;27.91;17.56
69187;BME280;56301;56.864;60.554;2024-02-16T09:43:28;101290.97;;;27.95;18.47
69187;BME280;56301;56.864;60.554;2024-02-16T09:45:57;101287.81;;;27.80;17.81
69187;BME280;56301;56.864;60.554;2024-02-16T09:48:20;101297.28;;;27.76;17.55
69187;BME280;56301;56.864;60.554;2024-02-16T09:50:42;101301.00;;;27.75;18.00
69187;BME280;56301;56.864;60.554;2024-02-16T09:53:05;101297.66;;;27.72;18.53
69187;BME280;56301;56.864;60.554;2024-02-16T09:55:29;101301.00;;;27.75;18.02
69187;BME280;56301;56.864;60.554;2024-02-16T09:58:00;101291.22;;;27.73;17.77
69187;BME280;56301;56.864;60.554;2024-02-16T10:00:23;101294.72;;;27.75;18.08
69187;BME280;56301;56.864;60.554;2024-02-16T10:02:45;101292.94;;;27.74;18.02
69187;BME280;56301;56.864;60.554;2024-02-16T10:07:33;101300.66;;;27.69;17.78
69187;BME280;56301;56.864;60.554;2024-02-16T10:09:56;101307.53;;;27.63;18.26
69187;BME280;56301;56.864;60.554;2024-02-16T10:12:18;101301.97;;;27.65;18.70
69187;BME280;56301;56.864;60.554;2024-02-16T10:14:41;101300.06;;;27.55;18.14
69187;BME280;56301;56.864;60.554;2024-02-16T10:17:04;101306.38;;;27.56;18.14
69187;BME280;56301;56.864;60.554;2024-02-16T10:19:27;101304.94;;;27.52;18.11
69187;BME280;56301;56.864;60.554;2024-02-16T10:21:50;101301.09;;;27.54;18.10
69187;BME280;56301;56.864;60.554;2024-02-16T10:24:12;101301.09;;;27.54;18.03
69187;BME280;56301;56.864;60.554;2024-02-16T10:26:35;101299.78;;;27.49;18.75
69187;BME280;56301;56.864;60.554;2024-02-16T10:28:58;101303.38;;;27.49;18.10
69187;BME280;56301;56.864;60.554;2024-02-16T10:31:22;101303.78;;;27.45;18.67
69187;BME280;56301;56.864;60.554;2024-02-16T10:33:44;101299.19;;;27.35;18.80
69187;BME280;56301;56.864;60.554;2024-02-16T10:36:07;101303.31;;;27.30;18.66
69187;BME280;56301;56.864;60.554;2024-02-16T10:38:29;101302.72;;;27.17;19.21
69187;BME280;56301;56.864;60.554;2024-02-16T10:40:52;101302.34;;;27.00;18.64
69187;BME280;56301;56.864;60.554;2024-02-16T10:43:15;101314.75;;;26.93;19.67
69187;BME280;56301;56.864;60.554;2024-02-16T10:45:39;101310.00;;;26.85;19.38
69187;BME280;56301;56.864;60.554;2024-02-16T10:48:02;101307.81;;;26.79;19.41
69187;BME280;56301;56.864;60.554;2024-02-16T10:50:25;101307.53;;;26.73;19.20
69187;BME280;56301;56.864;60.554;2024-02-16T10:52:48;101307.91;;;26.68;19.24
69187;BME280;56301;56.864;60.554;2024-02-16T10:55:11;101304.50;;;26.66;19.18
69187;BME280;56301;56.864;60.554;2024-02-16T10:57:35;101309.44;;;26.61;19.58
69187;BME280;56301;56.864;60.554;2024-02-16T10:59:58;101303.44;;;26.57;20.38
69187;BME280;56301;56.864;60.554;2024-02-16T11:02:20;101307.41;;;26.53;19.77
69187;BME280;56301;56.864;60.554;2024-02-16T11:04:45;101311.53;;;26.48;20.26
69187;BME280;56301;56.864;60.554;2024-02-16T11:07:11;101318.19;;;26.44;19.82
69187;BME280;56301;56.864;60.554;2024-02-16T11:09:35;101306.44;;;26.43;19.59
69187;BME280;56301;56.864;60.554;2024-02-16T11:12:01;101304.88;;;26.40;19.95
69187;BME280;56301;56.864;60.554;2024-02-16T11:14:33;101298.97;;;26.35;20.65
69187;BME280;56301;56.864;60.554;2024-02-16T11:16:55;101301.84;;;26.34;20.58
69187;BME280;56301;56.864;60.554;2024-02-16T11:19:18;101302.09;;;26.31;20.44
69187;BME280;56301;56.864;60.554;2024-02-16T11:21:54;101308.78;;;26.27;20.14
69187;BME280;56301;56.864;60.554;2024-02-16T11:24:16;101312.34;;;26.27;20.06
69187;BME280;56301;56.864;60.554;2024-02-16T11:26:42;101311.16;;;26.20;20.60
69187;BME280;56301;56.864;60.554;2024-02-16T11:29:05;101320.34;;;26.29;20.09
69187;BME280;56301;56.864;60.554;2024-02-16T11:31:27;101317.63;;;26.29;19.95
69187;BME280;56301;56.864;60.554;2024-02-16T11:33:50;101318.63;;;26.28;19.34
69187;BME280;56301;56.864;60.554;2024-02-16T11:36:12;101314.22;;;26.27;20.17
69187;BME280;56301;56.864;60.554;2024-02-16T11:38:35;101313.22;;;26.28;20.36
69187;BME280;56301;56.864;60.554;2024-02-16T11:40:58;101312.50;;;26.26;20.24
69187;BME280;56301;56.864;60.554;2024-02-16T11:43:21;101315.22;;;26.26;20.12
69187;BME280;56301;56.864;60.554;2024-02-16T11:45:44;101323.38;;;26.26;20.59
69187;BME280;56301;56.864;60.554;2024-02-16T11:48:06;101313.47;;;26.25;20.59
69187;BME280;56301;56.864;60.554;2024-02-16T11:50:29;101318.03;;;26.24;20.35
69187;BME280;56301;56.864;60.554;2024-02-16T11:52:51;101321.63;;;26.25;20.21
69187;BME280;56301;56.864;60.554;2024-02-16T11:55:14;101320.91;;;26.23;20.67
69187;BME280;56301;56.864;60.554;2024-02-16T11:57:36;101314.63;;;26.22;20.67
69187;BME280;56301;56.864;60.554;2024-02-16T12:00:00;101317.44;;;26.21;20.23
69187;BME280;56301;56.864;60.554;2024-02-16T12:02:23;101313.88;;;26.20;20.46
69187;BME280;56301;56.864;60.554;2024-02-16T12:04:46;101305.00;;;26.18;20.59
69187;BME280;56301;56.864;60.554;2024-02-16T12:07:08;101304.13;;;26.17;20.02
69187;BME280;56301;56.864;60.554;2024-02-16T12:09:31;101308.84;;;26.15;20.61
69187;BME280;56301;56.864;60.554;2024-02-16T12:11:54;101305.41;;;26.13;21.04
69187;BME280;56301;56.864;60.554;2024-02-16T12:14:17;101306.41;;;26.12;20.32
69187;BME280;56301;56.864;60.554;2024-02-16T12:16:40;101300.81;;;26.14;20.89
69187;BME280;56301;56.864;60.554;2024-02-16T12:19:03;101308.09;;;26.13;20.72